createdAt,value
2023-01-15T00:46:52.480Z,9.33
2023-01-15T00:51:52.573Z,9.30
2023-01-15T01:58:37.072Z,9.66
2023-01-15T02:25:44.900Z,9.46
2023-01-15T02:36:03.026Z,9.35
2023-01-15T03:13:03.597Z,9.26
2023-01-15T03:17:56.331Z,9.11
2023-01-15T03:22:53.624Z,9.05
2023-01-15T03:27:45.334Z,8.97
2023-01-15T03:32:38.451Z,9.01
2023-01-15T03:37:31.810Z,8.99
2023-01-15T03:42:33.099Z,8.95
2023-01-15T03:48:17.959Z,8.91
2023-01-15T03:53:22.578Z,8.99
2023-01-15T03:58:29.627Z,8.93
2023-01-15T04:03:24.591Z,8.90
2023-01-15T04:08:18.147Z,8.93
2023-01-15T04:13:09.831Z,9.00
2023-01-15T04:18:01.511Z,9.11
2023-01-15T04:22:53.369Z,9.09
2023-01-15T04:27:45.039Z,9.08
2023-01-15T04:32:36.755Z,9.07
2023-01-15T04:37:28.973Z,9.07
2023-01-15T04:42:39.033Z,9.07
2023-01-15T04:47:31.502Z,9.00
2023-01-15T04:52:23.217Z,9.03
2023-01-15T04:57:14.932Z,9.00
2023-01-15T05:02:07.192Z,9.06
2023-01-15T05:07:00.623Z,9.03
2023-01-15T05:11:52.478Z,9.02
2023-01-15T05:16:44.682Z,9.07
2023-01-15T05:21:41.649Z,9.12
2023-01-15T05:26:34.340Z,9.08
2023-01-15T05:31:27.345Z,8.99
2023-01-15T05:36:24.083Z,9.00
2023-01-15T05:41:38.724Z,9.04
2023-01-15T05:46:32.553Z,9.07
2023-01-15T05:51:24.376Z,9.00
2023-01-15T05:56:16.157Z,8.89
2023-01-15T06:01:10.464Z,8.84
2023-01-15T06:06:04.035Z,8.91
2023-01-15T06:10:56.640Z,8.90
2023-01-15T06:15:48.791Z,8.87
2023-01-15T06:20:42.948Z,8.89
2023-01-15T06:25:37.766Z,8.86
2023-01-15T06:30:30.407Z,8.82
2023-01-15T06:35:22.492Z,8.78
2023-01-15T06:40:15.448Z,8.76
2023-01-15T06:45:29.148Z,8.77
2023-01-15T06:50:21.078Z,8.68
2023-01-15T06:55:13.165Z,8.59
2023-01-15T07:00:05.801Z,8.51
2023-01-15T07:04:57.803Z,8.41
2023-01-15T07:09:50.703Z,8.48
2023-01-15T07:14:43.228Z,8.35
2023-01-15T07:19:35.578Z,8.29
2023-01-15T07:24:27.404Z,8.28
2023-01-15T07:29:19.479Z,8.25
2023-01-15T07:34:11.752Z,8.37
2023-01-15T07:39:09.867Z,8.30
2023-01-15T07:44:20.599Z,8.28
2023-01-15T07:49:32.213Z,8.39
2023-01-15T07:54:24.845Z,8.38
2023-01-15T07:59:17.223Z,8.45
2023-01-15T08:04:14.178Z,8.59
2023-01-15T08:09:07.910Z,8.77
2023-01-15T08:14:18.351Z,8.95
2023-01-15T08:19:10.468Z,9.01
2023-01-15T08:24:03.089Z,9.08
2023-01-15T08:28:55.749Z,8.93
2023-01-15T08:33:49.652Z,9.02
2023-01-15T08:38:41.448Z,9.08
2023-01-15T08:43:33.503Z,9.23
2023-01-15T08:48:27.652Z,9.99
2023-01-15T08:53:22.986Z,10.22
2023-01-15T08:58:16.588Z,10.15
2023-01-15T09:03:09.067Z,10.12
2023-01-15T09:08:01.244Z,10.13
2023-01-15T09:12:54.187Z,9.96
2023-01-15T09:17:46.159Z,10.01
2023-01-15T09:27:52.138Z,9.86
2023-01-15T09:32:44.473Z,9.79
2023-01-15T09:37:36.518Z,9.65
2023-01-15T09:42:53.446Z,9.40
2023-01-15T09:48:10.720Z,9.38
2023-01-15T09:53:46.642Z,9.16
2023-01-15T09:58:41.936Z,8.97
2023-01-15T10:03:48.338Z,8.71
2023-01-15T10:08:47.585Z,8.60
2023-01-15T10:13:49.819Z,8.55
2023-01-15T10:18:44.112Z,8.40
2023-01-15T10:23:48.902Z,8.36
2023-01-15T10:40:46.331Z,7.84
2023-01-15T10:45:56.306Z,7.77
2023-01-15T10:56:37.590Z,7.41
2023-01-15T11:01:30.326Z,7.42
2023-01-15T11:06:27.873Z,7.34
2023-01-15T11:12:06.467Z,7.16
2023-01-15T11:17:07.882Z,7.00
2023-01-15T11:22:01.751Z,6.73
2023-01-15T11:32:02.820Z,6.37
2023-01-15T11:37:18.187Z,6.28
2023-01-15T11:42:39.681Z,6.18
2023-01-15T11:47:52.438Z,6.04
2023-01-15T11:52:55.304Z,5.76
2023-01-15T11:57:50.940Z,5.58
2023-01-15T12:02:45.296Z,5.46
2023-01-15T12:07:42.303Z,5.40
2023-01-15T12:12:55.549Z,5.19
2023-01-15T12:18:30.647Z,5.22
2023-01-15T12:29:46.893Z,4.98
2023-01-15T12:35:05.176Z,4.89
2023-01-15T12:51:01.834Z,4.85
2023-01-15T12:56:15.445Z,4.84
2023-01-15T13:01:23.942Z,4.83
2023-01-15T13:06:19.842Z,4.84
2023-01-15T13:11:22.470Z,4.90
2023-01-15T13:16:18.193Z,4.76
2023-01-15T13:27:02.678Z,4.67
2023-01-15T13:42:51.825Z,4.46
2023-01-15T13:47:54.833Z,4.64
2023-01-15T13:52:49.123Z,4.70
2023-01-15T13:57:44.261Z,4.65
2023-01-15T14:07:50.330Z,4.79
2023-01-15T14:18:44.369Z,5.00
2023-01-15T14:24:40.223Z,4.93
2023-01-15T14:30:16.933Z,4.93
2023-01-15T14:45:55.852Z,4.89
2023-01-15T14:56:07.602Z,4.87
2023-01-15T15:06:22.223Z,4.96
2023-01-15T15:17:31.356Z,4.94
2023-01-15T15:22:32.879Z,4.89
2023-01-15T15:27:25.119Z,4.94
2023-01-15T15:32:33.439Z,4.95
2023-01-15T15:48:40.714Z,4.77
2023-01-15T15:58:40.989Z,4.58
2023-01-15T16:08:41.568Z,4.37
2023-01-15T16:13:47.139Z,4.23
2023-01-15T16:19:02.833Z,4.10
2023-01-15T16:24:06.099Z,4.08
2023-01-15T16:34:42.828Z,3.86
2023-01-15T16:39:47.864Z,3.72
2023-01-15T17:00:58.727Z,3.51
2023-01-15T17:11:24.139Z,3.52
2023-01-15T17:16:19.271Z,3.45
2023-01-15T17:21:36.764Z,3.38
2023-01-15T17:26:36.585Z,3.31
2023-01-15T17:41:46.601Z,3.22
2023-01-15T17:46:38.736Z,3.21
2023-01-15T17:51:32.440Z,3.14
2023-01-15T17:56:51.574Z,3.09
2023-01-15T18:02:07.493Z,3.12
2023-01-15T18:07:05.372Z,3.13
2023-01-15T18:11:57.338Z,3.06
2023-01-15T18:27:02.826Z,3.05
2023-01-15T18:31:54.890Z,3.11
2023-01-15T18:36:50.777Z,2.99
2023-01-15T18:41:43.446Z,2.96
2023-01-15T18:46:44.911Z,2.90
2023-01-15T18:51:38.016Z,2.88
2023-01-15T18:56:39.999Z,2.77
2023-01-15T19:01:33.696Z,2.79
2023-01-15T19:27:28.028Z,2.59
2023-01-15T19:37:27.846Z,2.39
2023-01-15T19:42:40.884Z,2.33
2023-01-15T19:48:01.596Z,2.46
2023-01-15T19:53:02.964Z,2.57
2023-01-15T19:58:05.968Z,2.68
2023-01-15T20:08:07.100Z,2.87
2023-01-15T20:28:51.341Z,2.97
2023-01-15T20:54:31.537Z,3.18
2023-01-15T20:59:23.789Z,3.00
2023-01-15T21:09:22.638Z,2.78
2023-01-15T21:14:15.193Z,2.75
2023-01-15T21:29:20.030Z,2.59
2023-01-15T21:34:16.304Z,2.50
2023-01-15T21:44:40.765Z,2.79
2023-01-15T21:49:34.748Z,2.94
2023-01-15T22:04:45.386Z,3.03
2023-01-15T22:09:41.932Z,3.13
2023-01-15T22:19:41.261Z,3.39
2023-01-15T22:24:35.845Z,3.47
2023-01-15T22:29:35.453Z,3.45
2023-01-15T22:34:29.020Z,3.52
2023-01-15T22:44:33.593Z,3.45
2023-01-15T22:54:41.456Z,3.43
2023-01-15T22:59:33.576Z,3.51
2023-01-15T23:04:28.104Z,3.48
2023-01-15T23:09:34.551Z,3.46
2023-01-15T23:14:27.943Z,3.42
2023-01-15T23:19:21.780Z,3.56
2023-01-15T23:24:15.767Z,3.86
2023-01-15T23:29:08.281Z,3.90
2023-01-15T23:39:07.005Z,3.82
2023-01-15T23:44:17.798Z,4.06
2023-01-15T23:49:13.455Z,4.18
2023-01-15T23:54:07.971Z,4.14
2023-01-15T23:59:01.358Z,3.99
